createdAt,value
2022-08-09T00:00:24.503Z,5.67
2022-08-09T00:02:59.168Z,5.57
2022-08-09T00:06:18.630Z,4.47
2022-08-09T00:08:32.048Z,3.03
2022-08-09T00:11:05.870Z,1.97
2022-08-09T00:14:00.479Z,1.80
2022-08-09T00:16:36.805Z,1.83
2022-08-09T00:19:10.345Z,1.70
2022-08-09T00:21:56.606Z,1.63
2022-08-09T00:24:34.127Z,1.40
2022-08-09T00:27:13.506Z,1.10
2022-08-09T00:30:16.774Z,1.20
2022-08-09T00:32:38.370Z,1.53
2022-08-09T00:35:10.201Z,1.70
2022-08-09T00:37:43.578Z,1.63
2022-08-09T00:40:17.713Z,1.53
2022-08-09T00:44:13.490Z,1.60
2022-08-09T00:45:47.452Z,2.30
2022-08-09T00:48:23.996Z,2.40
2022-08-09T00:51:00.725Z,2.50
2022-08-09T00:53:43.773Z,1.93
2022-08-09T00:56:16.514Z,1.80
2022-08-09T00:58:50.931Z,2.23
2022-08-09T01:01:32.515Z,3.03
2022-08-09T01:04:30.383Z,4.00
2022-08-09T01:07:19.761Z,2.97
2022-08-09T01:10:21.728Z,3.10
2022-08-09T01:13:07.445Z,3.27
2022-08-09T01:15:52.138Z,2.80
2022-08-09T01:18:31.459Z,2.27
2022-08-09T01:21:24.884Z,2.20
2022-08-09T01:24:05.240Z,2.30
2022-08-09T01:27:09.576Z,1.90
2022-08-09T01:29:54.913Z,1.80
2022-08-09T01:32:34.611Z,1.47
2022-08-09T01:35:28.202Z,1.40
2022-08-09T01:38:10.695Z,1.20
2022-08-09T01:40:52.719Z,1.50
2022-08-09T01:43:52.059Z,1.50
2022-08-09T01:46:35.414Z,1.67
2022-08-09T01:49:17.432Z,1.70
2022-08-09T01:51:54.313Z,1.67
2022-08-09T01:54:33.673Z,1.93
2022-08-09T01:57:14.945Z,2.20
2022-08-09T01:59:59.935Z,2.43
2022-08-09T02:02:38.362Z,2.30
2022-08-09T02:05:15.279Z,2.90
2022-08-09T02:08:36.048Z,2.40
2022-08-09T02:10:51.530Z,2.57
2022-08-09T02:13:40.308Z,2.60
2022-08-09T02:16:15.799Z,2.17
2022-08-09T02:18:47.853Z,2.10
2022-08-09T02:21:23.308Z,2.20
2022-08-09T02:24:02.980Z,1.83
2022-08-09T02:26:37.269Z,2.00
2022-08-09T02:29:18.910Z,1.80
2022-08-09T02:31:53.849Z,1.90
2022-08-09T02:34:40.671Z,2.10
2022-08-09T02:37:31.644Z,2.10
2022-08-09T02:40:09.270Z,2.20
2022-08-09T02:42:51.077Z,1.90
2022-08-09T02:45:29.632Z,2.30
2022-08-09T02:48:30.547Z,1.90
2022-08-09T02:51:03.888Z,1.70
2022-08-09T02:53:38.197Z,1.90
2022-08-09T02:56:15.135Z,1.60
2022-08-09T02:58:47.960Z,1.63
2022-08-09T03:01:29.542Z,1.30
2022-08-09T03:04:28.925Z,1.50
2022-08-09T03:07:15.360Z,1.63
2022-08-09T03:09:54.461Z,1.70
2022-08-09T03:12:42.428Z,1.50
2022-08-09T03:15:22.884Z,1.60
2022-08-09T03:17:58.789Z,1.50
2022-08-09T03:20:35.146Z,1.57
2022-08-09T03:23:15.076Z,1.33
2022-08-09T03:26:04.747Z,1.50
2022-08-09T03:28:43.641Z,1.33
2022-08-09T03:31:21.315Z,1.23
2022-08-09T03:33:56.602Z,1.20
2022-08-09T03:36:29.565Z,1.33
2022-08-09T03:39:06.309Z,1.20
2022-08-09T03:41:45.916Z,1.50
2022-08-09T03:44:19.292Z,1.30
2022-08-09T03:46:58.629Z,1.60
2022-08-09T03:49:39.911Z,1.80
2022-08-09T03:52:28.564Z,2.17
2022-08-09T03:55:07.671Z,1.90
2022-08-09T03:57:44.522Z,1.80
2022-08-09T04:00:24.057Z,2.00
2022-08-09T04:02:57.909Z,2.00
2022-08-09T04:05:32.681Z,1.97
2022-08-09T04:08:12.174Z,1.90
2022-08-09T04:10:48.021Z,2.20
2022-08-09T04:13:22.579Z,2.23
2022-08-09T04:16:19.883Z,1.90
2022-08-09T04:18:51.454Z,1.87
2022-08-09T04:21:27.586Z,2.13
2022-08-09T04:24:02.259Z,2.10
2022-08-09T04:26:38.182Z,2.40
2022-08-09T04:29:15.458Z,3.30
2022-08-09T04:31:48.386Z,3.40
2022-08-09T04:34:30.743Z,4.00
2022-08-09T04:37:04.350Z,3.90
2022-08-09T04:39:40.674Z,3.80
2022-08-09T04:42:10.984Z,4.63
2022-08-09T04:44:49.567Z,4.50
2022-08-09T04:47:26.208Z,4.13
2022-08-09T04:50:19.719Z,4.50
2022-08-09T04:52:52.124Z,4.67
2022-08-09T04:55:26.532Z,4.30
2022-08-09T04:58:09.461Z,3.90
2022-08-09T05:00:46.599Z,4.37
2022-08-09T05:03:40.859Z,3.87
2022-08-09T05:06:27.223Z,3.97
2022-08-09T05:09:01.287Z,3.43
2022-08-09T05:11:35.484Z,3.30
2022-08-09T05:14:14.663Z,2.97
2022-08-09T05:16:59.254Z,2.97
2022-08-09T05:19:44.717Z,4.07
2022-08-09T05:22:36.044Z,3.53
2022-08-09T05:25:12.465Z,3.10
2022-08-09T05:27:49.315Z,3.20
2022-08-09T05:30:26.124Z,3.10
2022-08-09T05:33:02.626Z,4.27
2022-08-09T05:35:33.357Z,4.97
2022-08-09T05:38:21.820Z,5.33
2022-08-09T05:40:55.110Z,6.00
2022-08-09T05:43:35.732Z,5.80
2022-08-09T05:46:09.675Z,7.00
2022-08-09T05:48:41.846Z,6.07
2022-08-09T05:51:30.174Z,6.43
2022-08-09T05:54:06.146Z,6.43
2022-08-09T05:56:39.247Z,6.27
2022-08-09T05:59:29.950Z,6.77
2022-08-09T06:02:00.364Z,6.83
2022-08-09T06:04:34.931Z,6.77
2022-08-09T06:07:21.157Z,6.67
2022-08-09T06:10:02.621Z,5.93
2022-08-09T06:12:41.936Z,7.03
2022-08-09T06:15:15.008Z,5.27
2022-08-09T06:17:48.036Z,5.60
2022-08-09T06:20:18.635Z,5.37
2022-08-09T06:22:52.742Z,5.43
2022-08-09T06:25:23.248Z,5.63
2022-08-09T06:27:54.266Z,5.20
2022-08-09T06:30:35.379Z,5.33
2022-08-09T06:33:30.340Z,5.07
2022-08-09T06:35:59.589Z,5.13
2022-08-09T06:38:47.315Z,5.03
2022-08-09T06:41:21.436Z,5.00
2022-08-09T06:43:52.991Z,4.93
2022-08-09T06:46:40.196Z,4.27
2022-08-09T06:49:11.639Z,4.40
2022-08-09T06:51:51.590Z,4.70
2022-08-09T06:54:29.166Z,4.73
2022-08-09T06:56:59.532Z,4.23
2022-08-09T07:00:50.102Z,4.30
2022-08-09T07:02:30.759Z,4.20
2022-08-09T07:05:01.918Z,4.23
2022-08-09T07:07:59.406Z,3.90
2022-08-09T07:10:31.156Z,3.60
2022-08-09T07:13:27.617Z,4.30
2022-08-09T07:16:42.791Z,4.07
2022-08-09T07:18:54.365Z,3.50
2022-08-09T07:21:26.825Z,3.80
2022-08-09T07:24:01.436Z,4.07
2022-08-09T07:26:41.486Z,3.27
2022-08-09T07:29:16.219Z,3.57
2022-08-09T07:31:48.074Z,3.30
2022-08-09T07:34:21.043Z,3.53
2022-08-09T07:36:59.065Z,3.23
2022-08-09T07:39:41.644Z,3.50
2022-08-09T07:42:15.597Z,2.80
2022-08-09T07:44:50.976Z,3.20
2022-08-09T07:47:27.117Z,3.23
2022-08-09T07:50:11.429Z,2.97
2022-08-09T07:52:43.082Z,3.37
2022-08-09T07:55:14.852Z,2.57
2022-08-09T07:57:48.657Z,2.93
2022-08-09T08:00:35.888Z,3.40
2022-08-09T08:03:12.779Z,2.60
2022-08-09T08:05:57.700Z,2.80
2022-08-09T08:09:01.672Z,2.47
2022-08-09T08:12:24.840Z,2.77
2022-08-09T08:14:12.407Z,2.60
2022-08-09T08:17:07.856Z,2.80
2022-08-09T08:19:40.104Z,2.57
2022-08-09T08:22:14.701Z,2.57
2022-08-09T08:24:50.861Z,2.20
2022-08-09T08:27:26.130Z,2.20
2022-08-09T08:29:59.154Z,2.27
2022-08-09T08:32:35.745Z,2.40
2022-08-09T08:35:36.943Z,2.07
2022-08-09T08:38:20.374Z,2.23
2022-08-09T08:40:55.301Z,1.83
2022-08-09T08:43:27.403Z,1.80
2022-08-09T08:46:31.741Z,1.93
2022-08-09T08:48:54.643Z,1.70
2022-08-09T08:51:25.161Z,1.97
2022-08-09T08:54:03.685Z,1.80
2022-08-09T08:56:41.803Z,1.80
2022-08-09T08:59:19.786Z,1.90
2022-08-09T09:01:56.682Z,1.90
2022-08-09T09:04:37.856Z,1.80
2022-08-09T09:07:19.480Z,1.80
2022-08-09T09:10:01.897Z,1.80
2022-08-09T09:12:41.738Z,2.30
2022-08-09T09:15:28.681Z,1.70
2022-08-09T09:17:59.377Z,1.80
2022-08-09T09:20:34.113Z,1.70
2022-08-09T09:23:06.547Z,1.70
2022-08-09T09:26:01.380Z,1.80
2022-08-09T09:29:02.468Z,1.50
2022-08-09T09:32:01.671Z,1.57
2022-08-09T09:34:29.024Z,1.60
2022-08-09T09:37:00.115Z,1.70
2022-08-09T09:39:54.998Z,1.70
2022-08-09T09:42:46.427Z,1.80
2022-08-09T09:45:26.720Z,1.63
2022-08-09T09:48:02.513Z,1.40
2022-08-09T09:50:50.631Z,1.47
2022-08-09T09:53:34.357Z,1.40
2022-08-09T09:56:30.967Z,1.40
2022-08-09T09:59:03.929Z,1.40
2022-08-09T10:01:40.774Z,1.10
2022-08-09T10:04:23.035Z,1.20
2022-08-09T10:07:09.751Z,1.30
2022-08-09T10:09:54.815Z,1.20
2022-08-09T10:12:33.281Z,1.10
2022-08-09T10:15:50.617Z,1.60
2022-08-09T10:18:18.480Z,1.40
2022-08-09T10:20:55.990Z,1.37
2022-08-09T10:23:28.139Z,1.30
2022-08-09T10:26:07.956Z,1.20
2022-08-09T10:28:49.070Z,1.20
2022-08-09T10:34:40.564Z,1.17
2022-08-09T10:37:13.842Z,1.17
2022-08-09T10:39:48.955Z,0.93
2022-08-09T10:42:22.231Z,1.20
2022-08-09T10:45:12.028Z,1.10
2022-08-09T10:48:14.379Z,1.07
2022-08-09T10:51:13.754Z,1.37
2022-08-09T10:54:04.796Z,1.20
2022-08-09T10:56:38.087Z,1.30
2022-08-09T10:59:43.210Z,1.30
2022-08-09T11:03:11.582Z,1.13
2022-08-09T11:05:35.746Z,1.20
2022-08-09T11:08:47.721Z,1.07
2022-08-09T11:11:19.179Z,1.20
2022-08-09T11:14:11.731Z,1.10
2022-08-09T11:16:52.162Z,1.07
2022-08-09T11:20:11.650Z,1.10
2022-08-09T11:23:10.151Z,1.00
2022-08-09T11:26:07.582Z,1.20
2022-08-09T11:28:55.890Z,1.20
2022-08-09T11:31:55.502Z,1.33
2022-08-09T11:34:37.742Z,1.20
2022-08-09T11:37:08.907Z,0.90
2022-08-09T11:40:07.100Z,1.20
2022-08-09T11:42:49.110Z,1.00
2022-08-09T11:45:42.353Z,1.10
2022-08-09T11:48:28.727Z,1.10
2022-08-09T11:52:48.718Z,1.13
2022-08-09T11:54:28.926Z,1.10
2022-08-09T11:58:00.478Z,0.80
2022-08-09T12:00:37.204Z,1.10
2022-08-09T12:03:55.562Z,1.30
2022-08-09T12:06:26.426Z,1.00
2022-08-09T12:09:01.135Z,0.93
2022-08-09T12:11:44.562Z,1.03
2022-08-09T12:14:40.520Z,0.70
2022-08-09T12:17:27.952Z,0.90
2022-08-09T12:20:22.161Z,0.90
2022-08-09T12:22:59.376Z,1.00
2022-08-09T12:25:37.279Z,1.00
2022-08-09T12:29:11.258Z,0.93
2022-08-09T12:31:10.868Z,1.03
2022-08-09T12:34:01.565Z,1.07
2022-08-09T12:36:36.079Z,1.10
2022-08-09T12:39:19.384Z,0.90
2022-08-09T12:41:50.387Z,1.30
2022-08-09T12:44:24.395Z,1.10
2022-08-09T12:46:55.069Z,1.00
2022-08-09T12:49:30.149Z,0.80
2022-08-09T12:52:10.933Z,0.90
2022-08-09T12:55:03.460Z,0.83
2022-08-09T12:57:55.932Z,0.70
2022-08-09T13:00:33.387Z,0.90
2022-08-09T13:03:05.708Z,0.90
2022-08-09T13:06:14.339Z,1.00
2022-08-09T13:09:01.094Z,0.90
2022-08-09T13:11:39.137Z,1.17
2022-08-09T13:14:42.859Z,0.97
2022-08-09T13:18:02.733Z,0.80
2022-08-09T13:20:23.577Z,0.90
2022-08-09T13:23:05.216Z,0.90
2022-08-09T13:25:53.331Z,1.00
2022-08-09T13:28:34.351Z,1.03
2022-08-09T13:32:17.189Z,1.00
2022-08-09T13:34:03.002Z,0.80
2022-08-09T13:36:43.146Z,0.83
2022-08-09T13:41:54.894Z,0.80
2022-08-09T13:42:14.413Z,0.83
2022-08-09T13:44:48.839Z,0.80
2022-08-09T13:47:33.178Z,0.80
2022-08-09T13:50:18.097Z,1.00
2022-08-09T13:53:00.397Z,0.83
2022-08-09T13:55:33.007Z,1.00
2022-08-09T13:58:04.936Z,1.00
2022-08-09T14:00:44.836Z,0.80
2022-08-09T14:04:03.314Z,0.97
2022-08-09T14:06:25.702Z,0.80
2022-08-09T14:08:59.546Z,1.00
2022-08-09T14:11:41.302Z,0.80
2022-08-09T14:14:26.848Z,1.03
2022-08-09T14:17:01.650Z,1.00
2022-08-09T14:19:34.460Z,0.87
2022-08-09T14:22:04.556Z,0.80
2022-08-09T14:24:36.745Z,0.70
2022-08-09T14:27:25.511Z,0.93
2022-08-09T14:30:35.379Z,0.80
2022-08-09T14:32:50.164Z,0.90
2022-08-09T14:35:21.460Z,1.00
2022-08-09T14:38:02.456Z,0.87
2022-08-09T14:41:01.886Z,0.63
2022-08-09T14:43:47.677Z,0.80
2022-08-09T14:47:00.822Z,0.77
2022-08-09T14:49:16.142Z,0.90
2022-08-09T14:51:46.149Z,0.70
2022-08-09T14:54:22.069Z,0.87
2022-08-09T14:56:58.195Z,0.70
2022-08-09T14:59:38.590Z,0.90
2022-08-09T15:02:10.576Z,0.90
2022-08-09T15:04:48.491Z,0.80
2022-08-09T15:07:21.063Z,0.90
2022-08-09T15:10:07.876Z,0.80
2022-08-09T15:12:45.084Z,0.83
2022-08-09T15:15:16.408Z,0.90
2022-08-09T15:17:52.834Z,1.00
2022-08-09T15:21:55.464Z,1.00
2022-08-09T15:24:05.992Z,0.90
2022-08-09T15:26:18.710Z,0.97
2022-08-09T15:29:04.091Z,1.10
2022-08-09T15:31:41.295Z,1.00
2022-08-09T15:34:33.082Z,0.70
2022-08-09T15:37:37.519Z,0.80
2022-08-09T15:40:11.794Z,0.83
2022-08-09T15:42:46.550Z,0.80
2022-08-09T15:45:21.377Z,0.80
2022-08-09T15:48:06.481Z,0.80
2022-08-09T15:50:44.392Z,1.00
2022-08-09T15:53:17.932Z,1.00
2022-08-09T15:56:29.279Z,0.80
2022-08-09T15:58:58.072Z,0.50
2022-08-09T16:01:31.584Z,0.80
2022-08-09T16:04:12.080Z,0.80
2022-08-09T16:06:50.551Z,0.80
2022-08-09T16:09:32.618Z,0.80
2022-08-09T16:12:22.531Z,0.83
2022-08-09T16:15:02.787Z,0.90
2022-08-09T16:17:35.674Z,1.00
2022-08-09T16:20:09.681Z,1.00
2022-08-09T16:22:48.857Z,0.80
2022-08-09T16:25:30.624Z,0.83
2022-08-09T16:28:13.746Z,1.00
2022-08-09T16:30:58.397Z,1.00
2022-08-09T16:33:30.748Z,1.00
2022-08-09T16:36:13.152Z,0.97
2022-08-09T16:38:51.636Z,0.77
2022-08-09T16:41:39.266Z,1.00
2022-08-09T16:44:19.684Z,0.90
2022-08-09T16:46:55.095Z,0.70
2022-08-09T16:50:33.172Z,1.10
2022-08-09T16:52:24.343Z,0.73
2022-08-09T16:54:59.696Z,0.90
2022-08-09T16:58:08.769Z,0.90
2022-08-09T17:00:25.378Z,0.90
2022-08-09T17:02:58.199Z,1.00
2022-08-09T17:06:07.277Z,0.87
2022-08-09T17:08:44.906Z,1.00
2022-08-09T17:11:15.673Z,0.90
2022-08-09T17:13:46.528Z,1.10
2022-08-09T17:16:38.329Z,0.90
2022-08-09T17:19:07.644Z,0.90
2022-08-09T17:21:49.016Z,0.90
2022-08-09T17:24:30.892Z,1.10
2022-08-09T17:27:00.321Z,1.07
2022-08-09T17:29:31.780Z,1.00
2022-08-09T17:32:09.728Z,0.80
2022-08-09T17:35:02.091Z,0.90
2022-08-09T17:38:02.687Z,1.00
2022-08-09T17:40:37.577Z,1.00
2022-08-09T17:43:33.722Z,0.80
2022-08-09T17:46:06.233Z,1.00
2022-08-09T17:48:39.399Z,1.10
2022-08-09T17:51:18.087Z,1.10
2022-08-09T17:54:01.635Z,1.00
2022-08-09T17:56:36.249Z,1.00
2022-08-09T17:59:11.312Z,0.90
2022-08-09T18:02:06.634Z,1.10
2022-08-09T18:04:45.122Z,1.23
2022-08-09T18:07:23.186Z,1.90
2022-08-09T18:10:04.153Z,1.10
2022-08-09T18:12:40.445Z,1.00
2022-08-09T18:15:21.028Z,1.00
2022-08-09T18:18:25.361Z,1.07
2022-08-09T18:21:18.831Z,1.10
2022-08-09T18:24:12.060Z,1.10
2022-08-09T18:26:46.581Z,1.00
2022-08-09T18:30:42.771Z,1.10
2022-08-09T18:32:09.652Z,0.90
2022-08-09T18:34:41.711Z,1.00
2022-08-09T18:37:47.188Z,1.10
2022-08-09T18:40:03.919Z,0.93
2022-08-09T18:42:33.238Z,1.07
2022-08-09T18:45:08.613Z,1.00
2022-08-09T18:47:38.064Z,1.03
2022-08-09T18:50:10.203Z,1.00
2022-08-09T18:52:42.528Z,1.10
2022-08-09T18:55:29.227Z,0.80
2022-08-09T18:58:06.382Z,1.00
2022-08-09T19:00:38.734Z,0.90
2022-08-09T19:03:06.961Z,0.90
2022-08-09T19:06:02.362Z,1.10
2022-08-09T19:08:30.410Z,0.80
2022-08-09T19:10:58.825Z,1.00
2022-08-09T19:13:38.538Z,0.90
2022-08-09T19:16:20.918Z,1.33
2022-08-09T19:18:52.130Z,1.03
2022-08-09T19:21:21.729Z,1.00
2022-08-09T19:24:32.096Z,1.00
2022-08-09T19:27:02.143Z,1.00
2022-08-09T19:29:31.480Z,1.00
2022-08-09T19:32:26.601Z,0.90
2022-08-09T19:34:58.585Z,1.03
2022-08-09T19:37:27.223Z,1.10
2022-08-09T19:40:04.476Z,1.07
2022-08-09T19:42:34.346Z,0.90
2022-08-09T19:45:06.592Z,1.00
2022-08-09T19:47:38.362Z,1.00
2022-08-09T19:50:48.499Z,1.23
2022-08-09T19:52:59.338Z,1.00
2022-08-09T19:56:01.825Z,1.00
2022-08-09T19:58:30.000Z,1.00
2022-08-09T20:01:02.498Z,1.00
2022-08-09T20:04:18.264Z,1.10
2022-08-09T20:06:29.800Z,1.07
2022-08-09T20:09:00.286Z,0.97
2022-08-09T20:11:33.725Z,1.00
2022-08-09T20:14:15.389Z,1.20
2022-08-09T20:16:53.855Z,1.00
2022-08-09T20:19:49.652Z,1.10
2022-08-09T20:22:15.573Z,1.03
2022-08-09T20:24:54.622Z,1.10
2022-08-09T20:27:22.935Z,0.90
2022-08-09T20:29:53.809Z,1.10
2022-08-09T20:32:33.426Z,1.10
2022-08-09T20:35:07.028Z,1.07
2022-08-09T20:38:19.729Z,1.27
2022-08-09T20:40:27.019Z,1.47
2022-08-09T20:43:09.714Z,1.30
2022-08-09T20:46:01.452Z,1.40
2022-08-09T20:48:35.868Z,1.10
2022-08-09T20:51:05.715Z,0.93
2022-08-09T20:53:37.408Z,1.10
2022-08-09T20:56:17.367Z,1.40
2022-08-09T20:58:54.728Z,1.13
2022-08-09T21:01:35.011Z,1.20
2022-08-09T21:05:52.139Z,1.10
2022-08-09T21:07:11.467Z,1.20
2022-08-09T21:09:56.258Z,0.90
2022-08-09T21:15:23.743Z,1.30
2022-08-09T21:18:23.135Z,1.00
2022-08-09T21:20:54.232Z,1.20
2022-08-09T21:23:26.546Z,1.20
2022-08-09T21:26:15.596Z,1.13
2022-08-09T21:28:51.830Z,1.27
2022-08-09T21:31:48.087Z,1.33
2022-08-09T21:34:29.175Z,1.37
2022-08-09T21:37:01.517Z,1.60
2022-08-09T21:39:42.023Z,1.30
2022-08-09T21:42:11.278Z,1.40
2022-08-09T21:44:42.880Z,1.50
2022-08-09T21:47:17.686Z,1.37
2022-08-09T21:49:53.804Z,1.23
2022-08-09T21:52:22.359Z,1.47
2022-08-09T21:55:03.426Z,1.30
2022-08-09T21:57:38.920Z,1.27
2022-08-09T22:00:32.179Z,1.40
2022-08-09T22:03:02.350Z,1.30
2022-08-09T22:05:36.835Z,1.30
2022-08-09T22:08:13.124Z,1.23
2022-08-09T22:11:49.352Z,1.00
2022-08-09T22:13:38.675Z,1.50
2022-08-09T22:16:10.836Z,1.20
2022-08-09T22:18:53.157Z,1.60
2022-08-09T22:21:24.467Z,1.30
2022-08-09T22:23:59.998Z,1.20
2022-08-09T22:26:34.692Z,1.50
2022-08-09T22:29:10.049Z,1.33
2022-08-09T22:31:50.517Z,1.40
2022-08-09T22:34:26.255Z,1.53
2022-08-09T22:36:54.833Z,1.70
2022-08-09T22:39:57.801Z,1.47
2022-08-09T22:42:21.070Z,1.50
2022-08-09T22:45:00.141Z,1.60
2022-08-09T22:48:12.378Z,1.30
2022-08-09T22:50:30.670Z,1.43
2022-08-09T22:52:58.947Z,1.53
2022-08-09T22:55:39.352Z,1.40
2022-08-09T22:58:20.421Z,1.67
2022-08-09T23:01:03.571Z,1.70
2022-08-09T23:04:05.576Z,1.60
2022-08-09T23:06:32.496Z,1.60
2022-08-09T23:09:08.895Z,1.80
2022-08-09T23:11:37.019Z,1.40
2022-08-09T23:14:17.306Z,1.60
2022-08-09T23:16:46.003Z,1.70
2022-08-09T23:19:17.413Z,1.70
2022-08-09T23:21:45.551Z,1.60
2022-08-09T23:24:16.850Z,1.70
2022-08-09T23:26:46.052Z,1.80
2022-08-09T23:29:18.631Z,1.37
2022-08-09T23:31:49.205Z,1.80
2022-08-09T23:34:19.425Z,1.57
2022-08-09T23:36:47.500Z,1.63
2022-08-09T23:39:15.609Z,1.63
2022-08-09T23:41:43.818Z,1.57
2022-08-09T23:44:11.933Z,1.80
2022-08-09T23:46:44.850Z,1.80
2022-08-09T23:49:12.971Z,1.70
2022-08-09T23:51:43.919Z,1.70
2022-08-09T23:54:12.036Z,1.80
2022-08-09T23:56:54.860Z,1.70
2022-08-09T23:59:25.392Z,1.50
